createdAt,value
2022-10-10T00:03:04.915Z,3.33
2022-10-10T00:15:27.220Z,3.50
2022-10-10T00:20:30.408Z,3.40
2022-10-10T00:25:33.136Z,3.05
2022-10-10T00:30:36.965Z,3.00
2022-10-10T00:35:39.840Z,2.95
2022-10-10T00:40:51.931Z,3.20
2022-10-10T00:45:54.895Z,3.42
2022-10-10T00:51:06.384Z,3.35
2022-10-10T01:02:51.275Z,3.25
2022-10-10T01:14:53.684Z,3.17
2022-10-10T01:40:04.899Z,3.38
2022-10-10T01:45:33.237Z,3.00
2022-10-10T01:57:22.426Z,2.92
2022-10-10T02:02:40.561Z,3.28
2022-10-10T02:07:54.313Z,3.47
2022-10-10T02:12:59.636Z,3.53
2022-10-10T02:18:03.927Z,4.07
2022-10-10T02:23:07.314Z,3.58
2022-10-10T02:28:21.770Z,3.25
2022-10-10T02:33:31.664Z,3.00
2022-10-10T02:38:34.733Z,3.40
2022-10-10T02:43:38.886Z,2.92
2022-10-10T02:48:41.824Z,3.05
2022-10-10T02:53:45.819Z,2.92
2022-10-10T02:58:48.595Z,3.43
2022-10-10T03:03:51.515Z,3.08
2022-10-10T03:08:54.343Z,3.15
2022-10-10T03:13:57.039Z,3.03
2022-10-10T03:18:59.733Z,3.15
2022-10-10T03:24:02.464Z,3.30
2022-10-10T03:29:06.010Z,2.88
2022-10-10T03:34:09.828Z,3.38
2022-10-10T03:39:12.851Z,2.83
2022-10-10T03:44:16.117Z,2.97
2022-10-10T03:49:18.969Z,3.28
2022-10-10T03:54:21.934Z,2.80
2022-10-10T03:59:24.792Z,3.47
2022-10-10T04:04:27.693Z,3.72
2022-10-10T04:09:31.285Z,3.10
2022-10-10T04:14:33.996Z,3.15
2022-10-10T04:19:36.791Z,3.53
2022-10-10T04:24:39.682Z,2.80
2022-10-10T04:29:42.353Z,2.95
2022-10-10T04:34:45.495Z,2.92
2022-10-10T04:39:48.571Z,2.95
2022-10-10T04:44:51.523Z,3.05
2022-10-10T04:49:54.353Z,3.30
2022-10-10T04:54:57.249Z,2.90
2022-10-10T05:00:00.624Z,2.60
2022-10-10T05:05:03.766Z,3.38
2022-10-10T05:10:08.040Z,3.20
2022-10-10T05:15:18.607Z,3.30
2022-10-10T05:20:22.394Z,3.47
2022-10-10T05:25:27.653Z,3.42
2022-10-10T05:30:30.588Z,3.92
2022-10-10T05:35:38.989Z,3.38
2022-10-10T05:40:42.600Z,3.95
2022-10-10T05:45:45.769Z,3.60
2022-10-10T05:50:55.678Z,4.22
2022-10-10T05:55:58.667Z,4.20
2022-10-10T06:01:07.032Z,4.25
2022-10-10T06:06:09.978Z,4.07
2022-10-10T06:11:13.172Z,4.35
2022-10-10T06:16:16.555Z,4.72
2022-10-10T06:21:20.898Z,4.63
2022-10-10T06:26:24.322Z,5.35
2022-10-10T06:31:27.851Z,4.78
2022-10-10T06:36:30.787Z,4.72
2022-10-10T06:41:33.555Z,4.40
2022-10-10T06:46:38.392Z,4.60
2022-10-10T06:51:42.201Z,3.60
2022-10-10T06:56:45.029Z,3.55
2022-10-10T07:01:48.071Z,3.45
2022-10-10T07:06:50.931Z,2.97
2022-10-10T07:11:53.837Z,4.43
2022-10-10T07:16:56.671Z,4.32
2022-10-10T07:21:59.845Z,4.32
2022-10-10T07:27:08.519Z,4.35
2022-10-10T07:32:11.729Z,4.97
2022-10-10T07:37:14.538Z,5.63
2022-10-10T07:42:17.466Z,5.55
2022-10-10T07:47:20.385Z,6.22
2022-10-10T07:52:23.532Z,10.40
2022-10-10T07:57:26.674Z,15.32
2022-10-10T08:02:29.565Z,6.15
2022-10-10T08:07:32.507Z,7.50
2022-10-10T08:12:35.355Z,6.95
2022-10-10T08:17:38.929Z,6.80
2022-10-10T08:22:41.833Z,5.93
2022-10-10T08:27:46.445Z,9.27
2022-10-10T08:32:51.738Z,6.88
2022-10-10T08:37:56.153Z,5.93
2022-10-10T08:43:05.658Z,5.35
2022-10-10T08:48:15.193Z,5.47
2022-10-10T08:53:44.003Z,5.43
2022-10-10T08:58:55.124Z,6.72
2022-10-10T09:04:02.113Z,5.72
2022-10-10T09:09:45.409Z,5.60
2022-10-10T09:15:10.777Z,6.00
2022-10-10T09:20:17.414Z,5.50
2022-10-10T09:25:43.259Z,10.68
2022-10-10T09:30:53.332Z,6.53
2022-10-10T09:35:59.775Z,13.35
2022-10-10T09:54:34.750Z,6.20
2022-10-10T09:59:45.807Z,6.97
2022-10-10T10:12:07.545Z,9.98
2022-10-10T10:17:16.176Z,7.60
2022-10-10T10:22:31.763Z,10.10
2022-10-10T10:34:49.355Z,6.13
2022-10-10T10:39:57.781Z,6.45
2022-10-10T10:45:28.697Z,8.02
2022-10-10T10:50:38.441Z,7.53
2022-10-10T11:22:48.185Z,5.78
2022-10-10T11:28:21.726Z,6.40
2022-10-10T11:40:02.140Z,5.68
2022-10-10T11:58:12.934Z,5.80
2022-10-10T12:03:16.003Z,5.43
2022-10-10T12:21:53.104Z,5.97
2022-10-10T12:26:56.136Z,5.35
2022-10-10T12:45:40.444Z,5.00
2022-10-10T12:50:43.676Z,5.40
2022-10-10T12:55:51.160Z,5.93
2022-10-10T13:00:56.002Z,5.45
2022-10-10T13:06:06.191Z,5.55
2022-10-10T13:11:33.885Z,5.60
2022-10-10T13:23:29.619Z,5.57
2022-10-10T13:28:33.087Z,5.70
2022-10-10T13:33:36.078Z,6.57
2022-10-10T13:38:39.396Z,6.13
2022-10-10T13:43:42.915Z,6.10
2022-10-10T13:48:46.053Z,5.80
2022-10-10T13:53:53.444Z,6.07
2022-10-10T13:59:03.055Z,6.03
2022-10-10T14:09:42.508Z,6.03
2022-10-10T14:15:41.643Z,5.18
2022-10-10T14:20:46.457Z,5.10
2022-10-10T14:32:43.233Z,5.30
2022-10-10T14:37:46.010Z,6.13
2022-10-10T14:42:49.215Z,6.18
2022-10-10T14:47:53.004Z,5.40
2022-10-10T14:52:55.787Z,5.78
2022-10-10T14:57:58.763Z,6.05
2022-10-10T15:03:01.683Z,6.30
2022-10-10T15:08:05.126Z,5.60
2022-10-10T15:13:08.367Z,6.13
2022-10-10T15:18:47.544Z,5.33
2022-10-10T15:24:02.120Z,5.00
2022-10-10T15:29:05.150Z,5.45
2022-10-10T15:34:09.329Z,5.63
2022-10-10T15:39:12.613Z,5.50
2022-10-10T15:44:19.809Z,5.57
2022-10-10T15:49:22.828Z,6.20
2022-10-10T15:54:25.603Z,5.88
2022-10-10T15:59:28.451Z,7.05
2022-10-10T16:04:31.448Z,25.45
2022-10-10T16:09:34.473Z,8.35
2022-10-10T16:14:37.580Z,8.35
2022-10-10T16:19:40.626Z,8.40
2022-10-10T16:24:53.875Z,8.48
2022-10-10T16:30:31.123Z,10.70
2022-10-10T16:35:38.715Z,12.98
2022-10-10T16:47:40.154Z,9.80
2022-10-10T16:52:43.141Z,9.52
2022-10-10T16:57:46.026Z,10.30
2022-10-10T17:02:48.930Z,10.82
2022-10-10T17:07:52.344Z,12.88
2022-10-10T17:12:55.075Z,77.30
2022-10-10T17:17:57.869Z,11.13
2022-10-10T17:23:00.759Z,15.10
2022-10-10T17:28:03.673Z,11.18
2022-10-10T17:33:06.430Z,10.77
2022-10-10T17:38:35.044Z,9.90
2022-10-10T17:50:52.404Z,11.18
2022-10-10T17:55:55.352Z,12.35
2022-10-10T18:01:03.057Z,14.70
2022-10-10T18:06:07.797Z,24.65
2022-10-10T18:16:20.290Z,14.23
2022-10-10T18:21:24.400Z,11.50
2022-10-10T18:26:32.994Z,12.38
2022-10-10T18:32:00.590Z,10.27
2022-10-10T18:37:03.561Z,11.60
2022-10-10T18:42:06.409Z,12.73
2022-10-10T18:47:09.386Z,16.48
2022-10-10T18:52:12.360Z,11.50
2022-10-10T18:57:15.386Z,10.80
2022-10-10T19:02:18.123Z,14.57
2022-10-10T19:07:20.964Z,11.50
2022-10-10T19:12:23.764Z,10.85
2022-10-10T19:17:26.535Z,12.52
2022-10-10T19:22:30.025Z,12.05
2022-10-10T19:27:32.813Z,14.50
2022-10-10T19:32:35.850Z,14.70
2022-10-10T19:37:42.569Z,15.13
2022-10-10T19:42:45.562Z,15.80
2022-10-10T19:47:49.577Z,15.98
2022-10-10T19:59:49.295Z,15.10
2022-10-10T20:04:53.103Z,17.02
2022-10-10T20:09:56.207Z,16.98
2022-10-10T20:15:00.868Z,16.52
2022-10-10T20:25:07.696Z,16.52
2022-10-10T20:30:11.232Z,18.00
2022-10-10T20:35:15.582Z,17.60
2022-10-10T20:40:18.795Z,17.93
2022-10-10T20:45:22.188Z,17.15
2022-10-10T20:50:25.833Z,17.55
2022-10-10T21:02:29.602Z,17.98
2022-10-10T21:07:32.400Z,17.88
2022-10-10T21:12:36.301Z,18.33
2022-10-10T21:17:39.104Z,16.88
2022-10-10T21:22:41.883Z,15.88
2022-10-10T21:27:44.667Z,15.85
2022-10-10T21:32:47.388Z,17.92
2022-10-10T21:37:50.213Z,18.25
2022-10-10T21:42:53.219Z,19.77
2022-10-10T21:47:55.964Z,19.10
2022-10-10T21:52:58.992Z,19.73
2022-10-10T22:04:55.758Z,19.42
2022-10-10T22:09:59.484Z,21.60
2022-10-10T22:15:02.477Z,20.73
2022-10-10T22:20:07.323Z,20.90
2022-10-10T22:30:14.905Z,20.13
2022-10-10T22:35:17.773Z,19.50
2022-10-10T22:40:23.100Z,17.92
2022-10-10T22:45:26.183Z,20.85
2022-10-10T22:50:29.585Z,20.08
2022-10-10T22:55:32.919Z,23.52
2022-10-10T23:07:35.088Z,19.80
2022-10-10T23:12:38.444Z,20.13
2022-10-10T23:17:41.137Z,20.65
2022-10-10T23:22:43.973Z,19.55
2022-10-10T23:27:47.369Z,20.77
2022-10-10T23:32:50.418Z,20.65
2022-10-10T23:37:53.160Z,21.95
2022-10-10T23:42:56.087Z,18.77
2022-10-10T23:47:58.924Z,19.23
2022-10-10T23:53:01.783Z,18.88
2022-10-10T23:58:05.115Z,18.13
